Terminal Aerodrome Forecast
Issued by NWS

Home | Current Version | Previous Version | Text Only | Print | Product List | Glossary Off
Versions: 1 2 3 4 5 6 7 8 9 10 11 12 13 14 15 16 17 18 19 20 21 22 23 24 25

778
FTUS43 KBIS 201051 AAB
TAFJMS
TAF AMD
KJMS 201051Z 2011/2106 26006KT 1/4SM FG OVC003
     FM201300 30010KT 2SM -RA BR OVC005
     FM201900 29016KT P6SM BKN015
     FM202300 27015KT P6SM FEW200=

USA.gov is the U.S. government's official web portal to all federal, state and local government web resources and services.